Time;durP1;ratioP1;P1;durP2;ratioP2;P2;SDS_P1;SDS_P2;PMS_P1;PMS_P2;Temp;Humidity;BMP_temperature;BMP_pressure;BME280_temperature;BME280_humidity;BME280_pressure;Samples;Min_cycle;Max_cycle;Signal;HPM_P1;HPM_P2
2024/03/03 00:01:32;;;;;;;22.52;16.45;;;;;;;;;;5014730;28;20029;-60
2024/03/03 00:03:58;;;;;;;22.40;17.48;;;;;;;;;;5014648;28;20036;-59
2024/03/03 00:06:24;;;;;;;21.52;17.60;;;;;;;;;;5014432;28;20475;-60
2024/03/03 00:08:50;;;;;;;21.83;17.65;;;;;;;;;;5014567;28;20037;-59
2024/03/03 00:11:16;;;;;;;19.75;16.80;;;;;;;;;;5012532;28;20079;-60
2024/03/03 00:13:42;;;;;;;20.17;17.50;;;;;;;;;;5014361;28;20464;-60
2024/03/03 00:16:08;;;;;;;18.58;16.50;;;;;;;;;;5014243;28;20029;-60
2024/03/03 00:18:38;;;;;;;20.13;16.52;;;;;;;;;;5014580;28;20038;-60
2024/03/03 00:21:16;;;;;;;21.58;17.83;;;;;;;;;;5013002;28;20053;-60
2024/03/03 00:23:42;;;;;;;18.67;16.30;;;;;;;;;;5014330;28;20097;-60
2024/03/03 00:26:08;;;;;;;19.88;16.35;;;;;;;;;;5014047;28;20365;-60
2024/03/03 00:28:34;;;;;;;20.90;16.33;;;;;;;;;;5013992;28;20026;-59
2024/03/03 00:31:00;;;;;;;21.70;16.38;;;;;;;;;;5014277;28;20429;-59
2024/03/03 00:33:26;;;;;;;22.90;17.58;;;;;;;;;;5012691;28;20132;-59
2024/03/03 00:35:52;;;;;;;22.20;16.13;;;;;;;;;;5013873;28;20472;-60
2024/03/03 00:38:18;;;;;;;22.08;17.27;;;;;;;;;;5029021;28;20117;-60
2024/03/03 00:40:44;;;;;;;19.23;15.77;;;;;;;;;;5013700;28;20034;-60
2024/03/03 00:43:10;;;;;;;18.23;16.33;;;;;;;;;;5013887;28;20057;-60
2024/03/03 00:45:36;;;;;;;18.50;16.10;;;;;;;;;;5013612;28;20064;-60
2024/03/03 00:48:03;;;;;;;18.85;16.15;;;;;;;;;;5012488;28;20061;-60
2024/03/03 00:50:29;;;;;;;17.98;15.90;;;;;;;;;;5013172;28;20319;-60
2024/03/03 00:53:04;;;;;;;20.48;15.55;;;;;;;;;;5013805;28;20049;-60
2024/03/03 00:55:30;;;;;;;17.88;15.27;;;;;;;;;;5012243;28;20026;-60
2024/03/03 00:57:56;;;;;;;16.88;14.90;;;;;;;;;;5013492;28;20024;-60
2024/03/03 01:00:22;;;;;;;18.90;15.02;;;;;;;;;;5013492;28;20042;-60
2024/03/03 01:02:48;;;;;;;16.70;14.25;;;;;;;;;;5013212;28;20361;-60
2024/03/03 01:05:14;;;;;;;17.30;15.45;;;;;;;;;;5013479;28;20108;-60
2024/03/03 01:07:40;;;;;;;18.92;14.93;;;;;;;;;;5005565;28;20072;-60
2024/03/03 01:10:07;;;;;;;19.77;15.52;;;;;;;;;;5013351;28;20117;-60
2024/03/03 01:12:33;;;;;;;19.67;16.15;;;;;;;;;;5013195;28;20018;-60
2024/03/03 01:14:59;;;;;;;17.15;15.32;;;;;;;;;;5013243;28;20026;-60
2024/03/03 01:17:25;;;;;;;18.73;15.45;;;;;;;;;;5011488;28;20079;-59
2024/03/03 01:19:51;;;;;;;19.13;15.52;;;;;;;;;;5001534;28;20050;-60
2024/03/03 01:22:32;;;;;;;18.88;16.30;;;;;;;;;;5013311;28;20045;-60
2024/03/03 01:24:58;;;;;;;20.42;16.00;;;;;;;;;;5013147;28;20501;-60
2024/03/03 01:27:25;;;;;;;18.05;15.85;;;;;;;;;;5012884;28;20025;-60
2024/03/03 01:29:51;;;;;;;18.65;16.02;;;;;;;;;;5012910;28;20048;-60
2024/03/03 01:32:17;;;;;;;21.00;16.88;;;;;;;;;;5013316;28;20018;-59
2024/03/03 01:34:44;;;;;;;20.48;16.88;;;;;;;;;;5012766;28;20534;-60
2024/03/03 01:37:10;;;;;;;20.55;16.77;;;;;;;;;;5012794;28;20030;-60
2024/03/03 01:39:38;;;;;;;20.00;15.57;;;;;;;;;;5012674;28;20324;-60
2024/03/03 01:42:05;;;;;;;18.23;15.68;;;;;;;;;;5011373;28;20109;-60
2024/03/03 01:44:31;;;;;;;20.08;16.80;;;;;;;;;;5012569;28;20034;-60
2024/03/03 01:46:57;;;;;;;19.67;16.13;;;;;;;;;;5012766;28;20507;-60
2024/03/03 01:49:23;;;;;;;19.58;16.17;;;;;;;;;;5012729;28;20022;-60
2024/03/03 01:51:56;;;;;;;21.80;17.02;;;;;;;;;;5012653;28;20018;-60
2024/03/03 01:54:22;;;;;;;19.63;15.95;;;;;;;;;;5012431;28;20034;-60
2024/03/03 01:56:49;;;;;;;19.40;16.83;;;;;;;;;;5012342;28;20064;-60
2024/03/03 01:59:16;;;;;;;20.48;16.27;;;;;;;;;;5012535;28;20022;-60
2024/03/03 02:01:42;;;;;;;20.20;15.77;;;;;;;;;;5012153;28;20087;-60
2024/03/03 02:04:09;;;;;;;21.50;16.30;;;;;;;;;;5010545;28;20034;-60
2024/03/03 02:06:35;;;;;;;21.55;16.85;;;;;;;;;;5012335;28;20191;-60
2024/03/03 02:09:02;;;;;;;19.15;17.00;;;;;;;;;;5012647;28;20022;-60
2024/03/03 02:11:31;;;;;;;20.45;16.63;;;;;;;;;;5008298;28;20571;-60
2024/03/03 02:13:57;;;;;;;19.90;16.90;;;;;;;;;;5012301;28;20033;-60
2024/03/03 02:16:23;;;;;;;19.02;16.00;;;;;;;;;;5010763;28;20022;-60
2024/03/03 02:18:49;;;;;;;21.20;15.70;;;;;;;;;;5011700;28;20377;-60
2024/03/03 02:21:16;;;;;;;18.67;15.82;;;;;;;;;;5019477;28;20030;-60
2024/03/03 02:23:42;;;;;;;17.60;15.60;;;;;;;;;;5006235;28;20053;-60
2024/03/03 02:26:08;;;;;;;18.95;16.00;;;;;;;;;;5000037;28;20030;-60
2024/03/03 02:28:34;;;;;;;17.85;15.85;;;;;;;;;;5009305;28;20030;-60
2024/03/03 02:31:00;;;;;;;18.50;15.52;;;;;;;;;;5010736;28;20026;-60
2024/03/03 02:33:26;;;;;;;18.27;15.90;;;;;;;;;;5007159;28;20118;-60
2024/03/03 02:35:52;;;;;;;21.02;15.65;;;;;;;;;;5007457;28;20083;-60
2024/03/03 02:38:18;;;;;;;18.08;15.48;;;;;;;;;;5011345;28;20025;-60
2024/03/03 02:40:44;;;;;;;21.33;14.38;;;;;;;;;;5011149;28;20042;-60
2024/03/03 02:43:10;;;;;;;18.30;15.70;;;;;;;;;;5011412;28;20105;-60
2024/03/03 02:45:37;;;;;;;20.02;15.30;;;;;;;;;;5011795;28;20148;-60
2024/03/03 02:48:03;;;;;;;20.80;16.33;;;;;;;;;;5001441;28;20101;-60
2024/03/03 02:50:29;;;;;;;18.63;16.23;;;;;;;;;;5011745;28;20091;-60
2024/03/03 02:52:55;;;;;;;18.13;14.77;;;;;;;;;;5011910;28;20129;-60
2024/03/03 02:55:21;;;;;;;20.77;15.48;;;;;;;;;;5010894;28;20425;-60
2024/03/03 02:57:47;;;;;;;18.52;15.50;;;;;;;;;;4995628;28;20045;-60
2024/03/03 03:00:13;;;;;;;18.75;15.63;;;;;;;;;;5005273;28;20392;-60
2024/03/03 03:02:39;;;;;;;20.48;16.55;;;;;;;;;;5011265;28;20022;-60
2024/03/03 03:05:06;;;;;;;19.25;16.95;;;;;;;;;;5011790;28;20029;-60
2024/03/03 03:07:32;;;;;;;23.60;16.98;;;;;;;;;;5011569;28;20036;-60
2024/03/03 03:09:58;;;;;;;21.70;17.70;;;;;;;;;;5010381;28;20033;-60
2024/03/03 03:12:24;;;;;;;21.10;16.63;;;;;;;;;;5011765;28;20026;-60
2024/03/03 03:14:50;;;;;;;22.38;17.20;;;;;;;;;;5014166;28;20108;-60
2024/03/03 03:17:16;;;;;;;20.08;17.02;;;;;;;;;;5001662;28;20126;-60
2024/03/03 03:19:44;;;;;;;18.73;16.17;;;;;;;;;;5015161;28;20057;-60
2024/03/03 03:22:10;;;;;;;22.13;17.58;;;;;;;;;;5015620;28;20463;-60
2024/03/03 03:24:36;;;;;;;24.73;17.85;;;;;;;;;;5015580;28;20061;-60
2024/03/03 03:27:02;;;;;;;21.45;17.15;;;;;;;;;;5015280;28;20151;-60
2024/03/03 03:29:28;;;;;;;19.60;16.23;;;;;;;;;;5013947;28;20026;-60
2024/03/03 03:31:54;;;;;;;23.58;17.13;;;;;;;;;;4997682;28;20519;-60
2024/03/03 03:34:20;;;;;;;20.45;16.85;;;;;;;;;;5013586;28;20060;-60
2024/03/03 03:36:46;;;;;;;22.80;17.00;;;;;;;;;;5015243;28;20550;-60
2024/03/03 03:39:12;;;;;;;23.63;17.38;;;;;;;;;;5015199;28;20125;-60
2024/03/03 03:41:48;;;;;;;22.13;17.10;;;;;;;;;;5014921;28;20132;-60
2024/03/03 03:44:14;;;;;;;19.08;15.52;;;;;;;;;;5014110;28;20038;-60
2024/03/03 03:46:40;;;;;;;19.27;15.07;;;;;;;;;;5013657;28;20029;-60
2024/03/03 03:49:10;;;;;;;19.92;14.70;;;;;;;;;;5010838;28;20025;-59
2024/03/03 03:54:39;;;;;;;20.83;15.25;;;;;;;;;;5006889;28;20061;-60
2024/03/03 03:57:05;;;;;;;18.42;13.90;;;;;;;;;;5010213;28;20029;-60
2024/03/03 03:59:31;;;;;;;17.10;14.18;;;;;;;;;;5011273;28;20029;-60
2024/03/03 04:02:00;;;;;;;19.35;14.82;;;;;;;;;;5011011;28;20044;-60
2024/03/03 04:04:27;;;;;;;19.67;15.07;;;;;;;;;;5010770;28;20542;-60
2024/03/03 04:06:53;;;;;;;19.77;15.52;;;;;;;;;;5010916;28;20022;-60
2024/03/03 04:09:18;;;;;;;18.13;13.98;;;;;;;;;;5014463;28;20072;-61
2024/03/03 04:11:44;;;;;;;18.00;13.75;;;;;;;;;;5014492;28;20033;-61
2024/03/03 04:14:10;;;;;;;16.60;12.95;;;;;;;;;;5014330;28;20040;-61
2024/03/03 04:16:36;;;;;;;15.70;12.85;;;;;;;;;;5013385;28;20018;-61
2024/03/03 04:19:02;;;;;;;15.30;12.88;;;;;;;;;;5013960;28;20368;-62
2024/03/03 04:21:28;;;;;;;17.30;11.93;;;;;;;;;;5029479;28;20038;-61
2024/03/03 04:23:54;;;;;;;16.77;12.38;;;;;;;;;;5014196;28;20117;-61
2024/03/03 04:26:20;;;;;;;17.17;12.48;;;;;;;;;;5013370;28;20018;-61
2024/03/03 04:28:46;;;;;;;13.60;11.65;;;;;;;;;;5014385;28;20073;-61
2024/03/03 04:31:12;;;;;;;15.52;12.02;;;;;;;;;;5014214;28;20437;-62
2024/03/03 04:33:38;;;;;;;15.40;11.20;;;;;;;;;;5014424;28;20129;-61
2024/03/03 04:36:14;;;;;;;12.40;10.68;;;;;;;;;;5014151;28;20368;-61
2024/03/03 04:38:40;;;;;;;12.18;10.75;;;;;;;;;;5013955;28;20535;-61
2024/03/03 04:41:16;;;;;;;12.20;10.38;;;;;;;;;;5012338;28;20480;-62
2024/03/03 04:43:42;;;;;;;12.10;10.32;;;;;;;;;;5013918;28;20037;-61
2024/03/03 04:46:08;;;;;;;15.68;11.13;;;;;;;;;;5013747;28;20507;-61
2024/03/03 04:48:35;;;;;;;13.20;11.25;;;;;;;;;;5008421;28;20026;-61
2024/03/03 04:51:01;;;;;;;13.05;10.07;;;;;;;;;;5007041;28;20033;-61
2024/03/03 04:53:27;;;;;;;12.88;10.18;;;;;;;;;;5013921;28;20026;-61
2024/03/03 04:55:53;;;;;;;13.23;9.95;;;;;;;;;;5013525;28;20437;-61
2024/03/03 04:58:19;;;;;;;10.95;9.10;;;;;;;;;;5013576;28;20045;-60
2024/03/03 05:00:45;;;;;;;10.45;9.13;;;;;;;;;;5013168;28;20041;-60
2024/03/03 05:03:11;;;;;;;10.15;8.80;;;;;;;;;;5013457;28;20064;-61
2024/03/03 05:05:37;;;;;;;11.35;9.45;;;;;;;;;;5013568;28;20089;-61
2024/03/03 05:08:03;;;;;;;10.90;8.95;;;;;;;;;;5013391;28;20554;-61
2024/03/03 05:10:29;;;;;;;11.55;9.00;;;;;;;;;;5013437;28;20029;-61
2024/03/03 05:12:55;;;;;;;11.10;9.23;;;;;;;;;;5013021;28;20033;-61
2024/03/03 05:15:21;;;;;;;10.98;8.80;;;;;;;;;;5013535;28;20034;-60
2024/03/03 05:17:47;;;;;;;10.60;8.75;;;;;;;;;;5013425;28;20036;-61
2024/03/03 05:20:13;;;;;;;11.80;9.18;;;;;;;;;;5012799;28;20124;-61
2024/03/03 05:22:39;;;;;;;9.52;8.52;;;;;;;;;;5013351;28;20057;-61
2024/03/03 05:25:06;;;;;;;11.80;8.43;;;;;;;;;;5013125;28;20033;-61
2024/03/03 05:27:32;;;;;;;9.75;8.45;;;;;;;;;;5009643;28;20124;-61
2024/03/03 05:30:00;;;;;;;9.95;8.30;;;;;;;;;;5008807;28;20443;-60
2024/03/03 05:32:26;;;;;;;10.30;7.97;;;;;;;;;;5012981;28;20468;-60
2024/03/03 05:34:52;;;;;;;8.13;7.28;;;;;;;;;;5013118;28;20072;-60
2024/03/03 05:37:18;;;;;;;9.00;7.40;;;;;;;;;;5011350;28;20022;-60
2024/03/03 05:39:44;;;;;;;9.13;7.82;;;;;;;;;;5012971;28;20045;-60
2024/03/03 05:42:11;;;;;;;10.38;8.18;;;;;;;;;;5012665;28;20391;-60
2024/03/03 05:44:37;;;;;;;8.18;7.38;;;;;;;;;;5012637;28;20021;-60
2024/03/03 05:47:03;;;;;;;10.18;7.50;;;;;;;;;;5012675;28;20053;-60
2024/03/03 05:49:29;;;;;;;8.07;7.28;;;;;;;;;;5011763;28;20034;-60
2024/03/03 05:51:55;;;;;;;8.35;7.20;;;;;;;;;;5005784;28;20030;-60
2024/03/03 05:54:21;;;;;;;9.27;7.45;;;;;;;;;;5008301;28;20032;-60
2024/03/03 05:56:47;;;;;;;10.93;8.18;;;;;;;;;;5007736;28;20030;-60
2024/03/03 05:59:14;;;;;;;9.25;7.70;;;;;;;;;;5012531;28;20399;-60
2024/03/03 06:01:47;;;;;;;10.05;8.07;;;;;;;;;;5008635;28;20069;-60
2024/03/03 06:04:13;;;;;;;9.35;7.90;;;;;;;;;;5012352;28;20049;-60
2024/03/03 06:06:40;;;;;;;9.77;8.07;;;;;;;;;;5012688;28;20037;-60
2024/03/03 06:09:08;;;;;;;8.68;7.25;;;;;;;;;;5012268;28;20551;-60
2024/03/03 06:11:34;;;;;;;8.88;7.75;;;;;;;;;;5011795;28;20049;-60
2024/03/03 06:14:00;;;;;;;10.13;8.23;;;;;;;;;;5012130;28;20473;-60
2024/03/03 06:16:26;;;;;;;11.00;8.32;;;;;;;;;;5012003;28;20098;-60
2024/03/03 06:18:52;;;;;;;9.25;7.28;;;;;;;;;;5008580;28;20018;-61
2024/03/03 06:21:18;;;;;;;8.02;7.22;;;;;;;;;;5011774;28;20053;-60
2024/03/03 06:23:44;;;;;;;10.88;7.70;;;;;;;;;;5012241;28;20101;-60
2024/03/03 06:26:14;;;;;;;8.85;7.43;;;;;;;;;;5012226;28;20088;-60
2024/03/03 06:28:44;;;;;;;9.40;7.05;;;;;;;;;;5011929;28;20108;-60
2024/03/03 06:31:10;;;;;;;8.48;7.15;;;;;;;;;;5011709;28;20029;-60
2024/03/03 06:33:36;;;;;;;8.75;7.20;;;;;;;;;;5012085;28;20029;-61
2024/03/03 06:36:02;;;;;;;10.35;7.85;;;;;;;;;;5011627;28;20025;-61
2024/03/03 06:38:29;;;;;;;8.82;6.97;;;;;;;;;;5011725;28;20041;-61
2024/03/03 06:40:55;;;;;;;10.10;7.35;;;;;;;;;;5011755;28;20038;-61
2024/03/03 06:43:21;;;;;;;8.65;6.63;;;;;;;;;;5011622;28;20028;-61
2024/03/03 06:45:47;;;;;;;8.93;7.43;;;;;;;;;;5011645;28;20464;-61
2024/03/03 06:48:13;;;;;;;8.50;7.05;;;;;;;;;;5012976;28;20099;-61
2024/03/03 06:50:40;;;;;;;9.35;7.55;;;;;;;;;;5017992;28;20018;-62
2024/03/03 06:53:06;;;;;;;10.18;7.35;;;;;;;;;;5018097;28;20022;-61
2024/03/03 06:55:32;;;;;;;9.32;7.72;;;;;;;;;;5018127;28;20028;-61
2024/03/03 06:57:58;;;;;;;7.43;6.50;;;;;;;;;;5018192;28;20029;-61
2024/03/03 07:00:25;;;;;;;9.63;6.60;;;;;;;;;;5018299;28;20061;-61
2024/03/03 07:03:12;;;;;;;7.57;6.80;;;;;;;;;;5018097;28;20506;-61
2024/03/03 07:05:39;;;;;;;11.45;7.75;;;;;;;;;;5018124;28;20089;-60
2024/03/03 07:08:05;;;;;;;9.13;7.30;;;;;;;;;;5016284;28;20362;-60
2024/03/03 07:10:32;;;;;;;11.15;8.05;;;;;;;;;;5017885;28;20591;-60
2024/03/03 07:12:58;;;;;;;11.00;7.63;;;;;;;;;;5017868;28;20030;-60
2024/03/03 07:15:24;;;;;;;12.02;7.78;;;;;;;;;;5018014;28;20037;-60
2024/03/03 07:17:50;;;;;;;10.30;7.72;;;;;;;;;;5015517;28;20046;-60
2024/03/03 07:20:16;;;;;;;8.23;7.00;;;;;;;;;;5017377;28;20488;-60
2024/03/03 07:22:42;;;;;;;9.70;8.23;;;;;;;;;;5018380;28;20033;-60
2024/03/03 07:25:08;;;;;;;8.90;6.93;;;;;;;;;;5017514;28;20034;-60
2024/03/03 07:27:34;;;;;;;8.45;7.38;;;;;;;;;;5017628;28;20145;-61
2024/03/03 07:30:00;;;;;;;10.40;7.85;;;;;;;;;;5017138;28;20035;-61
2024/03/03 07:32:28;;;;;;;7.80;6.50;;;;;;;;;;5017959;28;20037;-60
2024/03/03 07:34:55;;;;;;;9.68;7.45;;;;;;;;;;5017707;28;20084;-61
2024/03/03 07:37:21;;;;;;;7.63;6.93;;;;;;;;;;5013749;28;20535;-61
2024/03/03 07:39:47;;;;;;;7.72;6.45;;;;;;;;;;5007702;28;20031;-61
2024/03/03 07:42:14;;;;;;;7.70;5.85;;;;;;;;;;5017564;28;20120;-61
2024/03/03 07:44:40;;;;;;;7.80;6.82;;;;;;;;;;5017707;28;20062;-60
2024/03/03 07:47:06;;;;;;;9.07;6.47;;;;;;;;;;5017845;28;20033;-60
2024/03/03 07:49:32;;;;;;;7.68;6.25;;;;;;;;;;5016597;28;20034;-60
2024/03/03 07:51:58;;;;;;;8.10;6.45;;;;;;;;;;5017903;28;20029;-61
2024/03/03 07:54:24;;;;;;;6.50;5.50;;;;;;;;;;5017607;28;20026;-61
2024/03/03 07:56:50;;;;;;;10.23;6.78;;;;;;;;;;5017611;28;20036;-61
2024/03/03 07:59:16;;;;;;;9.10;6.20;;;;;;;;;;5017297;28;20396;-60
2024/03/03 08:01:42;;;;;;;8.43;6.40;;;;;;;;;;5020162;28;20049;-60
2024/03/03 08:04:15;;;;;;;9.07;6.00;;;;;;;;;;5014620;28;20516;-60
2024/03/03 08:06:41;;;;;;;6.63;6.03;;;;;;;;;;5014563;28;20045;-61
2024/03/03 08:09:07;;;;;;;7.60;5.60;;;;;;;;;;5013188;28;20030;-61
2024/03/03 08:11:33;;;;;;;9.60;6.05;;;;;;;;;;5014626;28;20474;-60
2024/03/03 08:13:59;;;;;;;8.73;6.30;;;;;;;;;;5014300;28;20091;-61
2024/03/03 08:16:26;;;;;;;9.65;6.10;;;;;;;;;;5014391;28;20482;-60
2024/03/03 08:18:53;;;;;;;9.70;5.10;;;;;;;;;;5014115;28;20442;-60
2024/03/03 08:21:19;;;;;;;9.30;6.38;;;;;;;;;;5010688;28;20388;-60
2024/03/03 08:23:45;;;;;;;10.05;5.88;;;;;;;;;;5012829;28;20105;-60
2024/03/03 08:26:11;;;;;;;7.57;5.68;;;;;;;;;;5008198;28;20038;-60
2024/03/03 08:28:37;;;;;;;7.10;5.00;;;;;;;;;;5003018;28;20022;-60
2024/03/03 08:34:07;;;;;;;6.78;5.43;;;;;;;;;;5003331;28;20083;-60
2024/03/03 08:36:33;;;;;;;8.98;5.60;;;;;;;;;;5011891;28;20472;-60
2024/03/03 08:38:59;;;;;;;7.47;4.90;;;;;;;;;;5007999;28;20106;-60
2024/03/03 08:41:25;;;;;;;5.20;4.25;;;;;;;;;;5012211;28;20105;-60
2024/03/03 08:43:51;;;;;;;7.82;5.03;;;;;;;;;;5013490;28;20026;-61
2024/03/03 08:46:17;;;;;;;8.05;5.07;;;;;;;;;;5011145;28;20429;-60
2024/03/03 08:48:43;;;;;;;6.20;4.90;;;;;;;;;;5003991;28;20022;-61
2024/03/03 08:51:09;;;;;;;6.68;4.53;;;;;;;;;;5003511;28;20061;-60
2024/03/03 08:53:36;;;;;;;15.80;6.30;;;;;;;;;;5009939;28;20021;-61
2024/03/03 08:56:02;;;;;;;6.93;4.75;;;;;;;;;;5013724;28;20388;-60
2024/03/03 08:58:28;;;;;;;6.10;4.32;;;;;;;;;;5013673;28;20097;-60
2024/03/03 09:00:54;;;;;;;6.78;4.65;;;;;;;;;;5013412;28;20092;-60
2024/03/03 09:03:26;;;;;;;7.97;5.60;;;;;;;;;;5013254;28;20030;-60
2024/03/03 09:05:52;;;;;;;6.97;5.20;;;;;;;;;;5013359;28;20064;-60
2024/03/03 09:08:19;;;;;;;7.45;4.85;;;;;;;;;;5013502;28;20018;-60
2024/03/03 09:10:45;;;;;;;6.45;3.72;;;;;;;;;;5012033;28;20062;-61
2024/03/03 09:13:11;;;;;;;6.55;4.05;;;;;;;;;;5012708;28;20527;-61
2024/03/03 09:15:37;;;;;;;7.10;4.35;;;;;;;;;;5011302;28;20175;-61
2024/03/03 09:18:03;;;;;;;4.15;3.72;;;;;;;;;;5012396;28;20018;-61
2024/03/03 09:20:29;;;;;;;7.80;4.20;;;;;;;;;;5012054;28;20054;-61
2024/03/03 09:22:55;;;;;;;4.07;3.67;;;;;;;;;;5011760;28;20451;-60
2024/03/03 09:25:21;;;;;;;6.22;3.95;;;;;;;;;;5011441;28;20034;-61
2024/03/03 09:27:48;;;;;;;6.40;3.78;;;;;;;;;;5009817;28;20117;-61
2024/03/03 09:30:14;;;;;;;4.88;3.83;;;;;;;;;;5012736;28;20010;-61
2024/03/03 09:32:40;;;;;;;3.88;3.15;;;;;;;;;;5012840;28;20036;-61
2024/03/03 09:35:07;;;;;;;9.30;3.85;;;;;;;;;;5011744;28;20049;-61
2024/03/03 09:37:33;;;;;;;7.95;4.50;;;;;;;;;;5011560;28;20488;-60
2024/03/03 09:39:58;;;;;;;5.70;3.90;;;;;;;;;;5012855;28;20049;-61
2024/03/03 09:42:24;;;;;;;7.80;4.43;;;;;;;;;;5012635;28;20124;-61
2024/03/03 09:44:52;;;;;;;9.35;4.50;;;;;;;;;;5011366;28;20025;-60
2024/03/03 09:47:18;;;;;;;9.57;3.78;;;;;;;;;;5005436;28;20022;-60
2024/03/03 09:49:45;;;;;;;8.43;3.67;;;;;;;;;;5021362;28;20112;-60
2024/03/03 09:52:14;;;;;;;3.80;3.45;;;;;;;;;;5012404;28;20105;-60
2024/03/03 09:54:50;;;;;;;7.75;3.40;;;;;;;;;;4997348;28;20104;-60
2024/03/03 09:57:17;;;;;;;4.88;3.33;;;;;;;;;;5011523;28;20060;-60
2024/03/03 09:59:45;;;;;;;7.05;4.35;;;;;;;;;;5010970;28;20471;-60
2024/03/03 10:02:17;;;;;;;6.63;3.50;;;;;;;;;;5012215;28;20479;-60
2024/03/03 10:04:46;;;;;;;9.48;4.20;;;;;;;;;;5010914;28;20419;-60
2024/03/03 10:07:16;;;;;;;7.18;3.17;;;;;;;;;;5006003;28;20026;-60
2024/03/03 10:09:43;;;;;;;5.20;3.00;;;;;;;;;;5011043;28;20026;-60
2024/03/03 10:12:10;;;;;;;6.60;3.38;;;;;;;;;;5012194;28;20033;-60
2024/03/03 10:14:36;;;;;;;5.20;3.42;;;;;;;;;;5011912;28;20018;-60
2024/03/03 10:17:03;;;;;;;4.90;3.60;;;;;;;;;;5011887;28;20728;-60
2024/03/03 10:19:30;;;;;;;6.78;3.60;;;;;;;;;;5011763;28;20054;-61
2024/03/03 10:21:56;;;;;;;6.88;3.15;;;;;;;;;;5010618;28;20064;-60
2024/03/03 10:24:23;;;;;;;6.85;3.50;;;;;;;;;;5011438;28;20459;-60
2024/03/03 10:26:50;;;;;;;6.30;3.25;;;;;;;;;;5011980;28;20133;-60
2024/03/03 10:29:25;;;;;;;4.80;3.47;;;;;;;;;;4999029;28;20048;-60
2024/03/03 10:31:51;;;;;;;;;;;;;;;;;;5012166;28;20109;-60
2024/03/03 10:34:18;;;;;;;4.57;2.90;;;;;;;;;;5011663;28;20390;-60
2024/03/03 10:36:45;;;;;;;4.35;3.20;;;;;;;;;;5010414;28;20030;-61
2024/03/03 10:39:20;;;;;;;6.63;3.20;;;;;;;;;;5011399;28;20110;-61
2024/03/03 10:41:46;;;;;;;3.35;2.90;;;;;;;;;;5009997;28;20042;-61
2024/03/03 10:44:12;;;;;;;5.43;3.30;;;;;;;;;;5008868;28;20115;-61
2024/03/03 10:46:38;;;;;;;5.47;3.33;;;;;;;;;;5011817;28;20391;-61
2024/03/03 10:49:05;;;;;;;6.82;3.47;;;;;;;;;;5011556;28;20025;-60
2024/03/03 10:51:31;;;;;;;6.07;2.92;;;;;;;;;;5012534;28;20026;-60
2024/03/03 10:54:02;;;;;;;8.05;3.47;;;;;;;;;;4997652;28;20075;-61
2024/03/03 10:56:29;;;;;;;5.40;3.33;;;;;;;;;;4999497;28;20018;-61
2024/03/03 11:02:05;;;;;;;7.30;3.50;;;;;;;;;;5006503;28;20053;-60
2024/03/03 11:04:32;;;;;;;7.68;3.00;;;;;;;;;;4996350;28;20030;-60
2024/03/03 11:06:59;;;;;;;5.45;3.30;;;;;;;;;;5005474;28;20022;-61
2024/03/03 11:09:26;;;;;;;5.82;2.72;;;;;;;;;;5010484;28;20033;-61
2024/03/03 11:12:00;;;;;;;7.75;3.47;;;;;;;;;;5011776;28;20030;-61
2024/03/03 11:14:28;;;;;;;4.75;3.22;;;;;;;;;;5010226;28;20064;-61
2024/03/03 11:16:56;;;;;;;8.48;3.00;;;;;;;;;;5011818;28;20034;-61
2024/03/03 11:19:28;;;;;;;5.38;3.40;;;;;;;;;;5009456;28;20045;-62
2024/03/03 11:21:58;;;;;;;8.45;3.40;;;;;;;;;;4997433;28;20416;-62
2024/03/03 11:24:31;;;;;;;3.65;2.90;;;;;;;;;;5012285;28;20072;-61
2024/03/03 11:27:05;;;;;;;4.05;2.60;;;;;;;;;;5011369;28;20444;-61
2024/03/03 11:29:32;;;;;;;5.15;3.03;;;;;;;;;;5011521;28;20128;-62
2024/03/03 11:31:59;;;;;;;5.88;3.45;;;;;;;;;;5010005;28;20033;-62
2024/03/03 11:34:25;;;;;;;7.65;3.83;;;;;;;;;;5011512;28;20054;-61
2024/03/03 11:36:52;;;;;;;5.28;3.45;;;;;;;;;;5014916;28;20456;-61
2024/03/03 11:39:20;;;;;;;5.80;3.85;;;;;;;;;;5015077;28;20187;-62
2024/03/03 11:41:46;;;;;;;4.63;3.00;;;;;;;;;;5015041;28;20037;-61
2024/03/03 11:44:30;;;;;;;6.35;3.50;;;;;;;;;;5004186;28;20026;-62
2024/03/03 11:46:58;;;;;;;6.03;3.30;;;;;;;;;;5007023;28;20041;-62
2024/03/03 11:49:24;;;;;;;6.90;3.90;;;;;;;;;;5014737;28;20036;-61
2024/03/03 11:51:53;;;;;;;4.40;2.55;;;;;;;;;;5015139;28;20038;-61
2024/03/03 11:54:36;;;;;;;6.82;3.60;;;;;;;;;;5014792;28;20025;-61
2024/03/03 11:57:04;;;;;;;5.65;3.58;;;;;;;;;;5014588;28;20472;-61
2024/03/03 11:59:33;;;;;;;5.88;3.33;;;;;;;;;;5014736;28;20032;-62
2024/03/03 12:02:00;;;;;;;7.10;4.13;;;;;;;;;;5014548;28;20034;-61
2024/03/03 12:04:26;;;;;;;6.75;4.00;;;;;;;;;;5014409;28;20029;-61
2024/03/03 12:06:55;;;;;;;4.32;2.80;;;;;;;;;;5014847;28;20032;-61
2024/03/03 12:09:22;;;;;;;5.63;2.92;;;;;;;;;;5014611;28;20480;-61
2024/03/03 12:11:49;;;;;;;6.63;3.20;;;;;;;;;;5014637;28;20506;-60
2024/03/03 12:14:15;;;;;;;8.38;4.45;;;;;;;;;;5014151;28;20018;-61
2024/03/03 12:16:41;;;;;;;6.20;3.15;;;;;;;;;;5014467;28;20033;-61
2024/03/03 12:19:10;;;;;;;6.03;3.15;;;;;;;;;;5013551;28;20053;-61
2024/03/03 12:21:36;;;;;;;11.07;3.70;;;;;;;;;;5014231;28;20029;-61
2024/03/03 12:24:05;;;;;;;5.47;3.20;;;;;;;;;;5014351;28;20124;-61
2024/03/03 12:26:31;;;;;;;4.80;2.88;;;;;;;;;;5005385;28;20124;-61
2024/03/03 12:28:57;;;;;;;6.60;3.60;;;;;;;;;;5009687;28;20033;-61
2024/03/03 12:31:23;;;;;;;5.68;2.80;;;;;;;;;;5012583;28;20021;-61
2024/03/03 12:33:49;;;;;;;3.95;2.70;;;;;;;;;;5008354;28;20030;-61
2024/03/03 12:36:15;;;;;;;7.90;3.22;;;;;;;;;;5011639;28;20034;-61
2024/03/03 12:38:42;;;;;;;6.85;2.47;;;;;;;;;;5007475;28;20041;-62
2024/03/03 12:41:08;;;;;;;6.40;3.28;;;;;;;;;;5011274;28;20044;-61
2024/03/03 12:43:34;;;;;;;7.30;3.33;;;;;;;;;;5008133;28;20077;-61
2024/03/03 12:46:01;;;;;;;7.43;3.65;;;;;;;;;;5001202;28;20033;-61
2024/03/03 12:48:27;;;;;;;7.38;5.03;;;;;;;;;;5010909;28;20038;-61
2024/03/03 12:51:08;;;;;;;9.23;4.25;;;;;;;;;;5013617;28;20026;-61
2024/03/03 12:53:34;;;;;;;7.82;3.90;;;;;;;;;;5009838;28;20018;-61
2024/03/03 12:56:15;;;;;;;6.85;3.33;;;;;;;;;;5007126;28;20102;-59
2024/03/03 12:58:43;;;;;;;6.53;3.60;;;;;;;;;;5007607;28;20617;-61
2024/03/03 13:01:10;;;;;;;6.93;3.72;;;;;;;;;;5010762;28;20038;-61
2024/03/03 13:03:39;;;;;;;11.60;4.78;;;;;;;;;;5009071;28;20056;-61
2024/03/03 13:06:05;;;;;;;9.88;5.63;;;;;;;;;;4994273;28;20037;-61
2024/03/03 13:08:31;;;;;;;11.23;4.95;;;;;;;;;;5012034;28;20018;-60
2024/03/03 13:10:57;;;;;;;9.05;4.60;;;;;;;;;;5012053;28;20029;-60
2024/03/03 13:13:23;;;;;;;11.18;4.55;;;;;;;;;;5000003;28;20025;-61
2024/03/03 13:15:51;;;;;;;9.25;5.50;;;;;;;;;;5013104;28;20030;-61
2024/03/03 13:18:17;;;;;;;9.77;5.20;;;;;;;;;;5013305;28;20013;-61
2024/03/03 13:20:44;;;;;;;7.60;3.90;;;;;;;;;;5012920;28;20041;-61
2024/03/03 13:23:11;;;;;;;7.90;4.72;;;;;;;;;;5013211;28;20025;-61
2024/03/03 13:25:38;;;;;;;8.98;4.68;;;;;;;;;;5012875;28;20033;-62
2024/03/03 13:28:07;;;;;;;8.77;4.68;;;;;;;;;;5013138;28;20045;-61
2024/03/03 13:30:34;;;;;;;7.88;4.68;;;;;;;;;;5013069;28;20372;-61
2024/03/03 13:33:00;;;;;;;7.43;4.05;;;;;;;;;;5012850;28;20026;-60
2024/03/03 13:35:26;;;;;;;9.63;5.82;;;;;;;;;;5013049;28;20022;-60
2024/03/03 13:37:52;;;;;;;7.97;4.32;;;;;;;;;;5013000;28;20518;-62
2024/03/03 13:40:18;;;;;;;7.88;4.43;;;;;;;;;;5012716;28;20032;-61
2024/03/03 13:42:44;;;;;;;8.77;4.38;;;;;;;;;;5012575;28;20026;-61
2024/03/03 13:45:11;;;;;;;6.93;4.28;;;;;;;;;;5012256;28;20034;-60
2024/03/03 13:47:38;;;;;;;5.85;4.32;;;;;;;;;;5012457;28;20041;-61
2024/03/03 13:50:04;;;;;;;12.63;4.43;;;;;;;;;;5012937;28;20057;-62
2024/03/03 13:52:42;;;;;;;5.68;4.05;;;;;;;;;;5012590;28;20029;-61
2024/03/03 13:55:08;;;;;;;5.97;3.50;;;;;;;;;;5012506;28;20036;-61
2024/03/03 13:57:39;;;;;;;5.78;4.40;;;;;;;;;;5012314;28;20018;-61
2024/03/03 14:00:12;;;;;;;11.93;7.07;;;;;;;;;;5006834;28;20050;-61
2024/03/03 14:02:40;;;;;;;8.57;4.28;;;;;;;;;;5009444;28;20041;-61
2024/03/03 14:05:06;;;;;;;11.35;5.68;;;;;;;;;;5011818;28;20025;-61
2024/03/03 14:07:41;;;;;;;11.80;6.05;;;;;;;;;;5012359;28;20459;-62
2024/03/03 14:10:07;;;;;;;8.80;5.18;;;;;;;;;;5010750;28;20029;-60
2024/03/03 14:12:33;;;;;;;8.18;5.22;;;;;;;;;;5012160;28;20467;-60
2024/03/03 14:15:00;;;;;;;11.32;4.00;;;;;;;;;;5012332;28;20022;-61
2024/03/03 14:17:26;;;;;;;8.55;5.00;;;;;;;;;;5010748;28;20025;-60
2024/03/03 14:19:53;;;;;;;6.63;4.85;;;;;;;;;;5011441;28;20431;-61
2024/03/03 14:25:24;;;;;;;6.30;3.63;;;;;;;;;;5006547;28;20048;-60
2024/03/03 14:27:50;;;;;;;8.98;4.88;;;;;;;;;;5010800;28;20053;-60
2024/03/03 14:30:16;;;;;;;6.57;4.25;;;;;;;;;;5010799;28;20096;-60
2024/03/03 14:32:42;;;;;;;8.23;5.05;;;;;;;;;;5010403;28;20034;-60
2024/03/03 14:35:08;;;;;;;9.93;4.78;;;;;;;;;;5012003;28;20128;-61
2024/03/03 14:37:34;;;;;;;10.68;4.45;;;;;;;;;;5012301;28;20112;-61
2024/03/03 14:40:00;;;;;;;8.43;4.93;;;;;;;;;;5009454;28;20352;-60
2024/03/03 14:42:26;;;;;;;9.05;4.75;;;;;;;;;;5003526;28;20050;-61
2024/03/03 14:44:53;;;;;;;6.57;4.43;;;;;;;;;;5011482;28;20026;-60